createdAt,value
2018-03-06T00:00:44.769Z,24.70
2018-03-06T00:03:12.298Z,30.73
2018-03-06T00:05:40.573Z,26.40
2018-03-06T00:08:08.873Z,30.40
2018-03-06T00:10:37.162Z,30.67
2018-03-06T00:13:05.441Z,27.23
2018-03-06T00:15:33.737Z,35.77
2018-03-06T00:18:02.020Z,32.40
2018-03-06T00:20:30.317Z,41.97
2018-03-06T00:22:58.599Z,35.67
2018-03-06T00:25:26.909Z,33.80
2018-03-06T00:27:54.421Z,36.50
2018-03-06T00:30:21.958Z,35.60
2018-03-06T00:32:49.469Z,35.17
2018-03-06T00:35:16.999Z,39.37
2018-03-06T00:37:44.514Z,36.07
2018-03-06T00:40:12.054Z,34.37
2018-03-06T00:42:39.558Z,34.73
2018-03-06T00:45:07.088Z,35.40
2018-03-06T00:47:34.604Z,40.70
2018-03-06T00:50:02.126Z,33.27
2018-03-06T00:52:29.652Z,44.00
2018-03-06T00:54:57.173Z,44.33
2018-03-06T00:57:24.686Z,46.67
2018-03-06T00:59:52.200Z,45.40
2018-03-06T01:02:19.718Z,43.87
2018-03-06T01:04:47.254Z,44.47
2018-03-06T01:07:14.765Z,41.20
2018-03-06T01:09:42.293Z,41.50
2018-03-06T01:12:09.793Z,36.43
2018-03-06T01:14:37.312Z,40.97
2018-03-06T01:17:05.585Z,38.23
2018-03-06T01:19:33.882Z,35.67
2018-03-06T01:22:02.159Z,43.60
2018-03-06T01:24:29.692Z,44.37
2018-03-06T01:26:57.197Z,42.30
2018-03-06T01:29:24.738Z,41.17
2018-03-06T01:31:52.236Z,40.40
2018-03-06T01:34:19.768Z,42.70
2018-03-06T01:36:47.268Z,45.37
2018-03-06T01:39:14.787Z,45.93
2018-03-06T01:41:42.292Z,55.53
2018-03-06T01:44:09.825Z,44.10
2018-03-06T01:46:37.333Z,46.70
2018-03-06T01:49:04.854Z,48.53
2018-03-06T01:51:44.989Z,54.83
2018-03-06T01:54:12.512Z,56.03
2018-03-06T01:56:40.021Z,59.67
2018-03-06T01:59:07.556Z,57.47
2018-03-06T02:01:35.052Z,53.70
2018-03-06T02:04:02.573Z,51.40
2018-03-06T02:06:30.847Z,57.60
2018-03-06T02:08:59.151Z,52.57
2018-03-06T02:11:27.412Z,58.37
2018-03-06T02:13:54.940Z,55.20
2018-03-06T02:16:22.456Z,56.80
2018-03-06T02:18:49.979Z,56.07
2018-03-06T02:21:17.494Z,62.40
2018-03-06T02:23:44.991Z,60.00
2018-03-06T02:26:13.275Z,55.00
2018-03-06T02:28:41.533Z,57.87
2018-03-06T02:31:09.036Z,55.87
2018-03-06T02:33:37.315Z,61.30
2018-03-06T02:36:05.575Z,60.30
2018-03-06T02:38:33.092Z,62.60
2018-03-06T02:41:01.355Z,62.97
2018-03-06T02:43:28.874Z,66.13
2018-03-06T02:46:08.389Z,60.80
2018-03-06T02:48:36.675Z,72.20
2018-03-06T02:51:04.942Z,65.23
2018-03-06T02:53:32.463Z,70.10
2018-03-06T02:55:59.954Z,70.67
2018-03-06T02:58:27.471Z,70.37
2018-03-06T03:00:54.967Z,76.27
2018-03-06T03:03:22.465Z,66.73
2018-03-06T03:05:49.978Z,57.73
2018-03-06T03:08:17.458Z,70.53
2018-03-06T03:10:57.167Z,64.30
2018-03-06T03:13:24.672Z,67.50
2018-03-06T03:15:52.188Z,67.67
2018-03-06T03:18:19.676Z,68.60
2018-03-06T03:20:47.191Z,66.97
2018-03-06T03:23:14.688Z,67.87
2018-03-06T03:25:42.207Z,76.07
2018-03-06T03:28:11.619Z,70.57
2018-03-06T03:30:39.149Z,72.30
2018-03-06T03:33:06.641Z,65.27
2018-03-06T03:35:34.128Z,79.97
2018-03-06T03:38:01.638Z,73.40
2018-03-06T03:40:29.895Z,71.73
2018-03-06T03:42:57.428Z,85.13
2018-03-06T03:45:24.927Z,80.03
2018-03-06T03:47:52.447Z,74.50
2018-03-06T03:50:20.707Z,82.07
2018-03-06T03:52:48.223Z,70.27
2018-03-06T03:55:15.723Z,77.97
2018-03-06T03:57:43.248Z,79.40
2018-03-06T04:00:11.507Z,84.87
2018-03-06T04:02:39.022Z,74.30
2018-03-06T04:05:06.507Z,80.77
2018-03-06T04:07:34.024Z,81.37
2018-03-06T04:10:01.515Z,84.37
2018-03-06T04:12:29.796Z,80.97
2018-03-06T04:14:58.051Z,79.27
2018-03-06T04:17:25.571Z,86.17
2018-03-06T04:19:53.068Z,87.43
2018-03-06T04:22:20.559Z,89.87
2018-03-06T04:24:48.075Z,82.17
2018-03-06T04:27:16.332Z,87.40
2018-03-06T04:29:43.847Z,90.33
2018-03-06T04:32:11.331Z,85.60
2018-03-06T04:34:38.850Z,95.53
2018-03-06T04:37:06.347Z,95.23
2018-03-06T04:39:33.874Z,91.03
2018-03-06T04:42:01.371Z,87.90
2018-03-06T04:44:28.890Z,100.17
2018-03-06T04:46:56.382Z,84.60
2018-03-06T04:49:23.895Z,83.80
2018-03-06T04:51:51.398Z,83.50
2018-03-06T04:54:18.919Z,99.27
2018-03-06T04:56:47.184Z,99.70
2018-03-06T04:59:14.699Z,92.93
2018-03-06T05:01:42.200Z,84.70
2018-03-06T05:04:09.696Z,89.80
2018-03-06T05:06:37.215Z,87.23
2018-03-06T05:09:04.735Z,95.90
2018-03-06T05:11:32.255Z,89.27
2018-03-06T05:13:59.756Z,88.70
2018-03-06T05:16:27.285Z,77.27
2018-03-06T05:18:55.588Z,85.77
2018-03-06T05:21:23.059Z,83.13
2018-03-06T05:23:50.570Z,86.83
2018-03-06T05:26:18.087Z,83.60
2018-03-06T05:28:46.352Z,87.93
2018-03-06T05:31:13.868Z,90.03
2018-03-06T05:33:41.355Z,89.20
2018-03-06T05:36:08.875Z,94.47
2018-03-06T05:38:37.139Z,80.33
2018-03-06T05:41:04.672Z,77.63
2018-03-06T05:43:32.171Z,85.60
2018-03-06T05:45:59.663Z,80.83
2018-03-06T05:48:27.184Z,87.37
2018-03-06T05:50:55.451Z,85.23
2018-03-06T05:53:22.979Z,81.23
2018-03-06T05:58:45.854Z,85.53
2018-03-06T06:01:13.379Z,85.17
2018-03-06T06:03:41.635Z,74.90
2018-03-06T06:06:09.122Z,81.73
2018-03-06T06:08:36.643Z,102.60
2018-03-06T06:11:04.139Z,117.43
2018-03-06T06:13:31.653Z,90.07
2018-03-06T06:15:59.903Z,87.20
2018-03-06T06:18:27.403Z,77.33
2018-03-06T06:20:55.654Z,81.90
2018-03-06T06:23:23.156Z,85.23
2018-03-06T06:25:50.636Z,83.93
2018-03-06T06:28:18.139Z,92.43
2018-03-06T06:30:45.619Z,91.10
2018-03-06T06:33:13.115Z,77.17
2018-03-06T06:35:40.595Z,80.33
2018-03-06T06:38:08.102Z,88.27
2018-03-06T06:40:35.592Z,89.50
2018-03-06T06:43:03.094Z,91.87
2018-03-06T06:45:30.576Z,87.37
2018-03-06T06:47:58.079Z,83.83
2018-03-06T06:50:26.324Z,91.57
2018-03-06T06:52:53.835Z,93.53
2018-03-06T06:55:21.319Z,75.93
2018-03-06T06:57:48.804Z,97.50
2018-03-06T07:00:16.297Z,85.37
2018-03-06T07:02:43.770Z,94.63
2018-03-06T07:05:11.271Z,90.03
2018-03-06T07:07:38.743Z,86.97
2018-03-06T07:10:06.247Z,98.97
2018-03-06T07:12:33.732Z,90.03
2018-03-06T07:15:01.227Z,93.27
2018-03-06T07:17:28.712Z,97.90
2018-03-06T07:19:56.227Z,119.37
2018-03-06T07:22:23.718Z,119.43
2018-03-06T07:24:51.228Z,186.53
2018-03-06T07:27:18.706Z,104.87
2018-03-06T07:29:46.975Z,90.83
2018-03-06T07:32:14.460Z,103.57
2018-03-06T07:34:41.996Z,103.47
2018-03-06T07:37:09.479Z,87.30
2018-03-06T07:39:36.959Z,104.17
2018-03-06T07:42:04.463Z,103.97
2018-03-06T07:44:32.715Z,88.47
2018-03-06T07:47:00.232Z,101.07
2018-03-06T07:49:27.710Z,97.50
2018-03-06T07:51:55.979Z,99.03
2018-03-06T07:54:24.223Z,89.97
2018-03-06T07:56:51.756Z,92.60
2018-03-06T07:59:19.243Z,158.30
2018-03-06T08:01:46.751Z,123.60
2018-03-06T08:04:14.240Z,105.10
2018-03-06T08:06:42.515Z,100.07
2018-03-06T08:09:10.003Z,89.60
2018-03-06T08:11:38.291Z,109.37
2018-03-06T08:14:06.537Z,93.77
2018-03-06T08:16:34.027Z,102.50
2018-03-06T08:19:01.531Z,90.27
2018-03-06T08:21:29.016Z,95.73
2018-03-06T08:23:56.567Z,92.87
2018-03-06T08:26:24.038Z,99.80
2018-03-06T08:28:52.299Z,97.50
2018-03-06T08:31:20.635Z,86.97
2018-03-06T08:33:48.575Z,107.03
2018-03-06T08:36:16.823Z,105.70
2018-03-06T08:38:44.319Z,95.03
2018-03-06T08:41:11.808Z,95.90
2018-03-06T08:43:40.075Z,94.73
2018-03-06T08:46:07.552Z,92.20
2018-03-06T08:48:35.056Z,93.00
2018-03-06T08:51:02.535Z,97.43
2018-03-06T08:53:30.036Z,86.00
2018-03-06T08:55:57.521Z,93.17
2018-03-06T08:58:25.008Z,97.33
2018-03-06T09:00:52.511Z,92.83
2018-03-06T09:03:19.992Z,94.40
2018-03-06T09:05:47.497Z,88.77
2018-03-06T09:08:14.978Z,107.87
2018-03-06T09:10:42.487Z,97.70
2018-03-06T09:13:09.967Z,92.67
2018-03-06T09:15:37.472Z,91.47
2018-03-06T09:18:04.951Z,93.73
2018-03-06T09:20:32.450Z,98.43
2018-03-06T09:23:00.692Z,98.10
2018-03-06T09:25:28.200Z,97.13
2018-03-06T09:27:56.456Z,85.83
2018-03-06T09:30:23.963Z,101.60
2018-03-06T09:32:52.215Z,95.90
2018-03-06T09:35:19.711Z,84.93
2018-03-06T09:37:47.191Z,79.23
2018-03-06T09:40:15.461Z,77.47
2018-03-06T09:42:42.942Z,77.93
2018-03-06T09:45:10.448Z,83.07
2018-03-06T09:47:37.927Z,71.30
2018-03-06T09:50:05.403Z,83.40
2018-03-06T09:52:32.907Z,80.20
2018-03-06T09:55:00.392Z,88.00
2018-03-06T09:57:27.894Z,84.70
2018-03-06T09:59:55.390Z,79.33
2018-03-06T10:02:22.884Z,76.97
2018-03-06T10:04:50.368Z,80.00
2018-03-06T10:07:17.875Z,75.93
2018-03-06T10:09:45.364Z,84.33
2018-03-06T10:12:12.872Z,78.00
2018-03-06T10:14:40.357Z,80.80
2018-03-06T10:17:08.628Z,79.67
2018-03-06T10:19:36.111Z,75.03
2018-03-06T10:22:03.615Z,75.63
2018-03-06T10:24:31.095Z,83.60
2018-03-06T10:26:58.584Z,82.30
2018-03-06T10:29:26.116Z,85.13
2018-03-06T10:31:54.361Z,79.50
2018-03-06T10:34:21.868Z,73.33
2018-03-06T10:36:49.365Z,85.57
2018-03-06T10:39:16.872Z,75.87
2018-03-06T10:41:44.365Z,80.87
2018-03-06T10:44:12.643Z,83.00
2018-03-06T10:46:40.128Z,73.13
2018-03-06T10:49:08.412Z,70.73
2018-03-06T10:51:36.657Z,79.60
2018-03-06T10:54:04.144Z,82.30
2018-03-06T10:56:31.656Z,83.37
2018-03-06T10:58:59.904Z,77.70
2018-03-06T11:01:36.056Z,80.23
2018-03-06T11:04:03.547Z,65.30
2018-03-06T11:06:31.050Z,85.23
2018-03-06T11:08:58.548Z,70.63
2018-03-06T11:11:26.052Z,74.37
2018-03-06T11:13:53.539Z,79.07
2018-03-06T11:16:21.043Z,75.83
2018-03-06T11:18:48.526Z,66.60
2018-03-06T11:21:16.031Z,79.17
2018-03-06T11:23:43.515Z,82.60
2018-03-06T11:26:11.015Z,65.30
2018-03-06T11:28:39.283Z,80.27
2018-03-06T11:31:06.784Z,70.23
2018-03-06T11:33:34.268Z,71.60
2018-03-06T11:36:01.776Z,72.20
2018-03-06T11:38:29.264Z,76.50
2018-03-06T11:40:56.767Z,74.63
2018-03-06T11:43:24.255Z,78.20
2018-03-06T11:45:51.738Z,73.17
2018-03-06T11:48:19.248Z,79.87
2018-03-06T11:50:46.735Z,78.20
2018-03-06T11:53:15.012Z,72.57
2018-03-06T11:55:43.273Z,77.23
2018-03-06T11:58:10.780Z,76.87
2018-03-06T12:00:39.027Z,77.90
2018-03-06T12:03:06.539Z,72.07
2018-03-06T12:05:34.787Z,75.07
2018-03-06T12:08:02.294Z,77.10
2018-03-06T12:10:30.542Z,81.47
2018-03-06T12:12:58.055Z,76.83
2018-03-06T12:15:26.313Z,82.80
2018-03-06T12:17:53.794Z,73.33
2018-03-06T12:20:21.303Z,89.63
2018-03-06T12:22:48.792Z,84.33
2018-03-06T12:25:16.296Z,73.03
2018-03-06T12:27:43.780Z,78.23
2018-03-06T12:30:12.053Z,81.57
2018-03-06T12:32:39.536Z,76.67
2018-03-06T12:35:07.039Z,78.07
2018-03-06T12:37:34.525Z,82.23
2018-03-06T12:40:02.034Z,77.27
2018-03-06T12:42:29.707Z,81.73
2018-03-06T12:44:57.223Z,107.77
2018-03-06T12:47:24.711Z,82.17
2018-03-06T12:49:52.200Z,81.00
2018-03-06T12:52:19.708Z,66.27
2018-03-06T12:54:48.037Z,84.13
2018-03-06T12:57:15.481Z,80.47
2018-03-06T12:59:42.970Z,74.63
2018-03-06T13:02:10.476Z,72.47
2018-03-06T13:04:37.968Z,74.23
2018-03-06T13:07:05.480Z,76.33
2018-03-06T13:09:32.970Z,69.67
2018-03-06T13:12:00.473Z,81.17
2018-03-06T13:14:27.955Z,77.47
2018-03-06T13:16:56.223Z,74.00
2018-03-06T13:19:23.704Z,73.77
2018-03-06T13:21:51.214Z,76.83
2018-03-06T13:24:18.699Z,77.77
2018-03-06T13:26:46.184Z,73.57
2018-03-06T13:29:13.691Z,68.63
2018-03-06T13:31:41.180Z,70.73
2018-03-06T13:34:09.447Z,75.80
2018-03-06T13:36:37.699Z,69.93
2018-03-06T13:39:05.204Z,68.37
2018-03-06T13:41:32.695Z,71.17
2018-03-06T13:44:00.963Z,72.23
2018-03-06T13:46:28.454Z,69.37
2018-03-06T13:48:55.967Z,69.33
2018-03-06T13:51:23.453Z,71.17
2018-03-06T13:53:50.955Z,60.57
2018-03-06T13:56:19.210Z,62.23
2018-03-06T13:58:46.711Z,66.33
2018-03-06T14:01:14.959Z,74.93
2018-03-06T14:03:42.474Z,71.40
2018-03-06T14:06:10.719Z,69.13
2018-03-06T14:08:38.200Z,59.77
2018-03-06T14:11:05.711Z,67.37
2018-03-06T14:13:33.194Z,63.17
2018-03-06T14:16:00.699Z,70.53
2018-03-06T14:18:28.193Z,68.67
2018-03-06T14:20:55.695Z,62.00
2018-03-06T14:23:23.181Z,64.83
2018-03-06T14:25:50.688Z,61.57
2018-03-06T14:28:18.171Z,68.10
2018-03-06T14:30:45.684Z,66.47
2018-03-06T14:33:13.172Z,64.67
2018-03-06T14:35:40.682Z,68.23
2018-03-06T14:38:08.166Z,66.37
2018-03-06T14:40:36.448Z,62.80
2018-03-06T14:43:03.931Z,68.53
2018-03-06T14:45:32.184Z,68.67
2018-03-06T14:47:59.691Z,77.13
2018-03-06T14:50:27.946Z,70.23
2018-03-06T14:52:55.451Z,74.23
2018-03-06T14:55:23.706Z,68.53
2018-03-06T14:57:51.211Z,72.87
2018-03-06T15:00:19.458Z,72.20
2018-03-06T15:02:46.963Z,68.63
2018-03-06T15:05:15.208Z,64.87
2018-03-06T15:07:42.706Z,71.97
2018-03-06T15:10:10.188Z,73.97
2018-03-06T15:12:38.459Z,72.77
2018-03-06T15:15:05.952Z,71.97
2018-03-06T15:17:34.218Z,67.60
2018-03-06T15:20:01.708Z,72.10
2018-03-06T15:22:29.197Z,61.60
2018-03-06T15:24:56.713Z,66.70
2018-03-06T15:27:24.206Z,62.53
2018-03-06T15:29:51.715Z,66.63
2018-03-06T15:32:19.192Z,60.63
2018-03-06T15:34:46.694Z,67.77
2018-03-06T15:37:14.184Z,60.77
2018-03-06T15:39:41.692Z,66.73
2018-03-06T15:42:09.180Z,66.07
2018-03-06T15:44:36.771Z,64.97
2018-03-06T15:47:04.524Z,61.23
2018-03-06T15:52:32.927Z,68.20
2018-03-06T15:55:07.951Z,73.63
2018-03-06T15:57:40.044Z,73.70
2018-03-06T16:00:08.295Z,76.90
2018-03-06T16:02:35.944Z,74.30
2018-03-06T16:05:03.437Z,73.07
2018-03-06T16:07:30.950Z,65.70
2018-03-06T16:09:59.206Z,66.67
2018-03-06T16:12:26.736Z,71.07
2018-03-06T16:14:54.228Z,64.33
2018-03-06T16:17:21.739Z,64.67
2018-03-06T16:19:50.005Z,67.37
2018-03-06T16:22:17.548Z,60.50
2018-03-06T16:24:45.039Z,71.17
2018-03-06T16:27:12.601Z,61.87
2018-03-06T16:29:40.103Z,70.93
2018-03-06T16:32:08.389Z,74.33
2018-03-06T16:34:35.915Z,70.13
2018-03-06T16:37:03.385Z,61.10
2018-03-06T16:39:30.890Z,79.03
2018-03-06T16:41:58.388Z,75.23
2018-03-06T16:44:26.676Z,74.13
2018-03-06T16:46:55.273Z,74.27
2018-03-06T16:49:23.561Z,80.70
2018-03-06T16:51:51.812Z,74.70
2018-03-06T16:54:19.313Z,72.43
2018-03-06T16:56:47.572Z,76.80
2018-03-06T16:59:15.079Z,73.60
2018-03-06T17:01:43.327Z,74.37
2018-03-06T17:04:10.832Z,75.27
2018-03-06T17:06:39.087Z,73.00
2018-03-06T17:09:06.590Z,73.17
2018-03-06T17:11:34.846Z,70.30
2018-03-06T17:14:02.352Z,70.43
2018-03-06T17:16:30.595Z,81.60
2018-03-06T17:18:58.080Z,74.30
2018-03-06T17:21:25.609Z,74.30
2018-03-06T17:23:53.103Z,81.00
2018-03-06T17:26:20.612Z,74.67
2018-03-06T17:28:48.114Z,73.33
2018-03-06T17:31:15.624Z,74.40
2018-03-06T17:33:43.123Z,71.87
2018-03-06T17:36:11.397Z,80.27
2018-03-06T17:38:38.910Z,82.17
2018-03-06T17:41:06.421Z,88.17
2018-03-06T17:43:33.971Z,93.50
2018-03-06T17:46:01.445Z,84.40
2018-03-06T17:48:28.968Z,86.03
2018-03-06T17:50:57.237Z,95.23
2018-03-06T17:53:24.719Z,83.13
2018-03-06T17:55:52.966Z,85.73
2018-03-06T17:58:20.471Z,78.30
2018-03-06T18:00:47.957Z,86.03
2018-03-06T18:03:16.219Z,74.07
2018-03-06T18:05:43.720Z,78.10
2018-03-06T18:08:11.224Z,94.93
2018-03-06T18:10:38.718Z,82.63
2018-03-06T18:13:06.215Z,81.23
2018-03-06T18:15:33.771Z,86.57
2018-03-06T18:18:01.354Z,79.30
2018-03-06T18:20:29.016Z,84.33
2018-03-06T18:22:56.711Z,81.03
2018-03-06T18:25:24.210Z,76.63
2018-03-06T18:27:52.485Z,96.23
2018-03-06T18:30:20.066Z,85.80
2018-03-06T18:32:47.610Z,80.03
2018-03-06T18:35:15.976Z,88.43
2018-03-06T18:37:43.510Z,103.60
2018-03-06T18:40:11.032Z,100.07
2018-03-06T18:42:38.564Z,91.40
2018-03-06T18:45:06.095Z,87.83
2018-03-06T18:47:33.607Z,87.10
2018-03-06T18:50:01.964Z,86.30
2018-03-06T18:52:29.463Z,97.73
2018-03-06T18:54:57.030Z,96.20
2018-03-06T18:57:24.557Z,87.33
2018-03-06T19:03:10.134Z,81.47
2018-03-06T19:05:50.880Z,84.73
2018-03-06T19:08:19.152Z,85.20
2018-03-06T19:10:46.652Z,86.90
2018-03-06T19:13:14.132Z,91.00
2018-03-06T19:15:41.644Z,87.00
2018-03-06T19:18:09.332Z,87.47
2018-03-06T19:20:36.868Z,91.80
2018-03-06T19:23:04.345Z,87.47
2018-03-06T19:25:31.856Z,85.83
2018-03-06T19:27:59.341Z,90.17
2018-03-06T19:30:27.610Z,94.67
2018-03-06T19:32:55.220Z,86.70
2018-03-06T19:35:22.747Z,86.97
2018-03-06T19:37:50.276Z,88.90
2018-03-06T19:40:17.766Z,87.87
2018-03-06T19:42:45.249Z,95.43
2018-03-06T19:45:12.755Z,102.80
2018-03-06T19:47:41.003Z,98.53
2018-03-06T19:50:08.512Z,109.77
2018-03-06T19:52:36.755Z,89.83
2018-03-06T19:55:04.261Z,99.13
2018-03-06T19:57:31.743Z,99.63
2018-03-06T20:00:00.019Z,88.63
2018-03-06T20:02:28.270Z,113.60
2018-03-06T20:04:55.777Z,96.77
2018-03-06T20:07:24.041Z,101.10
2018-03-06T20:09:51.557Z,99.73
2018-03-06T20:12:19.055Z,103.00
2018-03-06T20:14:52.193Z,101.40
2018-03-06T20:17:19.699Z,95.63
2018-03-06T20:19:47.204Z,100.27
2018-03-06T20:22:14.690Z,96.93
2018-03-06T20:24:47.773Z,92.10
2018-03-06T20:27:15.337Z,92.20
2018-03-06T20:29:42.858Z,98.57
2018-03-06T20:32:16.945Z,96.77
2018-03-06T20:34:44.434Z,98.30
2018-03-06T20:37:11.936Z,101.40
2018-03-06T20:39:45.927Z,92.53
2018-03-06T20:42:13.412Z,96.67
2018-03-06T20:44:40.891Z,107.70
2018-03-06T20:47:14.768Z,107.13
2018-03-06T20:49:42.251Z,102.63
2018-03-06T20:52:09.758Z,92.37
2018-03-06T20:57:56.300Z,103.70
2018-03-06T21:00:24.575Z,102.83
2018-03-06T21:02:52.068Z,95.80
2018-03-06T21:05:20.340Z,103.33
2018-03-06T21:07:47.819Z,93.23
2018-03-06T21:10:16.090Z,90.73
2018-03-06T21:12:43.584Z,89.87
2018-03-06T21:15:11.854Z,85.90
2018-03-06T21:17:39.326Z,87.00
2018-03-06T21:20:07.695Z,93.77
2018-03-06T21:22:36.159Z,87.33
2018-03-06T21:25:03.668Z,87.10
2018-03-06T21:27:31.167Z,76.50
2018-03-06T21:29:59.411Z,83.57
2018-03-06T21:32:26.916Z,82.27
2018-03-06T21:34:55.164Z,83.07
2018-03-06T21:37:22.658Z,87.33
2018-03-06T21:39:50.149Z,78.57
2018-03-06T21:42:18.419Z,79.97
2018-03-06T21:44:45.906Z,75.87
2018-03-06T21:47:14.174Z,73.63
2018-03-06T21:49:41.655Z,77.70
2018-03-06T21:52:09.153Z,73.33
2018-03-06T21:54:36.632Z,81.40
2018-03-06T21:57:04.131Z,82.23
2018-03-06T21:59:31.616Z,83.53
2018-03-06T22:01:59.117Z,71.77
2018-03-06T22:04:27.360Z,72.30
2018-03-06T22:06:54.887Z,67.73
2018-03-06T22:09:22.379Z,69.53
2018-03-06T22:11:49.888Z,67.93
2018-03-06T22:14:17.366Z,72.57
2018-03-06T22:16:44.868Z,64.07
2018-03-06T22:19:12.369Z,73.27
2018-03-06T22:21:39.895Z,65.57
2018-03-06T22:24:08.136Z,69.33
2018-03-06T22:26:35.635Z,58.07
2018-03-06T22:29:03.115Z,63.60
2018-03-06T22:31:30.621Z,62.70
2018-03-06T22:33:58.112Z,72.00
2018-03-06T22:36:25.606Z,61.77
2018-03-06T22:38:53.091Z,67.27
2018-03-06T22:41:20.588Z,69.20
2018-03-06T22:43:48.094Z,72.93
2018-03-06T22:46:15.590Z,69.50
2018-03-06T22:48:43.075Z,67.10
2018-03-06T22:51:10.580Z,60.40
2018-03-06T22:53:38.060Z,59.03
2018-03-06T22:56:05.560Z,65.00
2018-03-06T22:58:33.039Z,62.10
2018-03-06T23:01:00.548Z,63.60
2018-03-06T23:03:28.023Z,65.80
2018-03-06T23:05:57.477Z,60.63
2018-03-06T23:08:24.952Z,73.33
2018-03-06T23:10:52.452Z,61.63
2018-03-06T23:13:20.899Z,67.83
2018-03-06T23:15:48.404Z,58.47
2018-03-06T23:18:15.893Z,55.23
2018-03-06T23:20:44.182Z,62.80
2018-03-06T23:23:12.436Z,59.83
2018-03-06T23:25:39.957Z,60.50
2018-03-06T23:28:07.453Z,56.83
2018-03-06T23:30:34.941Z,63.43
2018-03-06T23:33:02.453Z,64.13
2018-03-06T23:35:30.712Z,52.40
2018-03-06T23:37:58.222Z,56.90
2018-03-06T23:40:25.708Z,52.83
2018-03-06T23:42:53.216Z,59.53
2018-03-06T23:45:20.708Z,56.77
2018-03-06T23:47:48.221Z,54.33
2018-03-06T23:50:15.716Z,60.17
2018-03-06T23:52:43.230Z,55.70
2018-03-06T23:55:11.493Z,57.50
2018-03-06T23:57:39.001Z,54.13
